Time;durP1;ratioP1;P1;durP2;ratioP2;P2;SDS_P1;SDS_P2;PMS_P1;PMS_P2;Temp;Humidity;BMP_temperature;BMP_pressure;BME280_temperature;BME280_humidity;BME280_pressure;Samples;Min_cycle;Max_cycle;Signal;HPM_P1;HPM_P2
2023/01/23 00:01:06;;;;;;;26.90;18.60;;;;;;;1.75;100.00;103508.44;4954374;28;20037;-52
2023/01/23 00:03:33;;;;;;;25.00;17.80;;;;;;;1.29;100.00;103427.53;4953144;29;20039;-53
2023/01/23 00:06:00;;;;;;;25.20;18.38;;;;;;;1.65;100.00;103485.44;4954170;28;20037;-54
2023/01/23 00:08:25;;;;;;;30.52;18.58;;;;;;;1.28;100.00;103423.19;4952790;29;20463;-54
2023/01/23 00:10:51;;;;;;;25.83;18.05;;;;;;;1.20;100.00;103408.94;4952679;29;20054;-55
2023/01/23 00:13:16;;;;;;;25.33;18.15;;;;;;;1.70;100.00;103496.94;4953662;28;20453;-55
2023/01/23 00:15:42;;;;;;;28.73;18.52;;;;;;;1.29;100.00;103432.72;4953949;28;20042;-53
2023/01/23 00:18:07;;;;;;;30.20;17.70;;;;;;;1.24;100.00;103425.53;4953051;29;20035;-53
2023/01/23 00:20:32;;;;;;;24.02;17.60;;;;;;;1.62;100.00;103488.81;4954153;29;20042;-52
2023/01/23 00:22:57;;;;;;;27.95;17.48;;;;;;;1.67;100.00;103500.28;4953942;29;20553;-52
2023/01/23 00:25:23;;;;;;;26.10;17.20;;;;;;;0.44;100.00;103275.72;4954008;28;20035;-52
2023/01/23 00:27:48;;;;;;;19.42;14.85;;;;;;;1.56;100.00;103477.25;4952602;29;20161;-52
2023/01/23 00:30:14;;;;;;;22.92;15.93;;;;;;;1.28;100.00;103415.41;4952645;29;20035;-51
2023/01/23 00:32:40;;;;;;;23.00;16.23;;;;;;;1.17;100.00;103403.59;4953884;28;20109;-52
2023/01/23 00:35:06;;;;;;;24.65;16.40;;;;;;;1.30;100.00;103431.03;4953956;28;20129;-54
2023/01/23 00:37:31;;;;;;;24.23;16.42;;;;;;;1.26;100.00;103416.13;4953886;29;20043;-54
2023/01/23 00:39:56;;;;;;;25.40;15.75;;;;;;;1.65;100.00;103488.94;4954047;29;20050;-55
2023/01/23 00:42:21;;;;;;;22.77;15.77;;;;;;;1.52;100.00;103449.34;4953796;29;20035;-52
2023/01/23 00:44:47;;;;;;;24.80;15.45;;;;;;;1.64;100.00;103471.56;4953696;28;20035;-54
2023/01/23 00:47:12;;;;;;;30.33;15.13;;;;;;;1.19;100.00;103389.03;4953969;28;20035;-55
2023/01/23 00:49:37;;;;;;;24.30;15.90;;;;;;;1.59;100.00;103464.41;4953603;29;20036;-56
2023/01/23 00:52:03;;;;;;;20.23;15.52;;;;;;;1.62;100.00;103480.13;4953764;28;20042;-53
2023/01/23 00:54:28;;;;;;;22.85;14.55;;;;;;;1.60;100.00;103472.28;4953506;29;20043;-52
2023/01/23 00:56:53;;;;;;;24.00;15.90;;;;;;;1.60;100.00;103477.47;4952903;29;20039;-53
2023/01/23 00:59:19;;;;;;;22.50;14.65;;;;;;;1.59;100.00;103474.78;4953487;28;20451;-54
2023/01/23 01:01:44;;;;;;;28.75;17.08;;;;;;;1.60;100.00;103464.50;4949589;28;20039;-52
2023/01/23 01:04:09;;;;;;;19.55;14.65;;;;;;;1.13;100.00;103381.84;4955838;28;20039;-54
2023/01/23 01:06:35;;;;;;;25.65;15.55;;;;;;;1.58;100.00;103466.09;4956742;28;20123;-54
2023/01/23 01:09:01;;;;;;;22.15;15.95;;;;;;;1.14;100.00;103387.91;4956915;28;20386;-52
2023/01/23 01:11:27;;;;;;;26.20;15.02;;;;;;;1.15;100.00;103400.06;4956374;28;20081;-54
2023/01/23 01:13:54;;;;;;;21.25;15.55;;;;;;;1.11;100.00;103382.56;4939203;29;20078;-54
2023/01/23 01:16:19;;;;;;;22.98;15.80;;;;;;;1.55;100.00;103468.56;4956969;28;20502;-52
2023/01/23 01:18:44;;;;;;;24.83;16.17;;;;;;;1.48;100.00;103460.44;4957450;28;20066;-55
2023/01/23 01:21:13;;;;;;;26.17;15.98;;;;;;;1.53;100.00;103469.31;4957325;28;20047;-55
2023/01/23 01:23:39;;;;;;;24.25;15.32;;;;;;;1.54;100.00;103489.28;4956142;29;20027;-54
2023/01/23 01:26:05;;;;;;;26.23;15.90;;;;;;;1.43;100.00;103457.59;4957659;28;20101;-51
2023/01/23 01:28:32;;;;;;;22.25;15.45;;;;;;;1.50;100.00;103469.16;4955692;29;20360;-53
2023/01/23 01:31:02;;;;;;;24.58;15.70;;;;;;;1.50;100.00;103472.66;4956948;28;20050;-54
2023/01/23 01:33:27;;;;;;;21.52;15.20;;;;;;;1.11;100.00;103400.72;4957418;28;20062;-55
2023/01/23 01:35:55;;;;;;;23.10;15.75;;;;;;;1.07;100.00;103406.59;4956814;28;20035;-54
2023/01/23 01:38:21;;;;;;;22.98;15.57;;;;;;;1.48;100.00;103481.19;4955592;29;20574;-55
2023/01/23 01:40:46;;;;;;;27.63;16.70;;;;;;;1.48;100.00;103483.78;4957007;28;20390;-53
2023/01/23 01:43:19;;;;;;;23.27;15.73;;;;;;;1.17;100.00;103431.28;4956595;28;20035;-51
2023/01/23 01:46:05;;;;;;;31.10;15.90;;;;;;;1.47;100.00;103490.69;4956819;28;20037;-52
2023/01/23 01:48:37;;;;;;;23.58;15.57;;;;;;;1.02;100.00;103405.50;4955287;29;20368;-54
2023/01/23 01:51:03;;;;;;;;;;;;;;;1.47;100.00;103489.78;4957018;28;20050;-55
2023/01/23 01:53:29;;;;;;;32.72;16.20;;;;;;;1.08;100.00;103426.56;4955534;29;19915;-55
2023/01/23 01:55:55;;;;;;;24.13;15.98;;;;;;;1.14;100.00;103439.78;4956385;28;20039;-52
2023/01/23 01:58:21;;;;;;;27.38;16.40;;;;;;;1.13;100.00;103441.50;4956767;28;20039;-55
2023/01/23 02:00:47;;;;;;;23.80;17.10;;;;;;;1.43;100.00;103487.88;4955262;29;20054;-56
2023/01/23 02:03:12;;;;;;;23.80;16.67;;;;;;;1.42;100.00;103497.38;4956481;28;20475;-53
2023/01/23 02:05:43;;;;;;;25.80;17.48;;;;;;;1.00;100.00;103418.38;4955100;29;20042;-54
2023/01/23 02:08:18;;;;;;;25.98;16.63;;;;;;;1.04;100.00;103435.00;4955102;29;20114;-54
2023/01/23 02:10:43;;;;;;;26.40;16.85;;;;;;;1.36;100.00;103483.22;4954824;29;20134;-53
2023/01/23 02:13:21;;;;;;;32.30;17.67;;;;;;;1.44;100.00;103508.69;4938757;29;20118;-51
2023/01/23 02:15:47;;;;;;;25.55;16.15;;;;;;;0.94;100.00;103404.25;4956273;28;20038;-55
2023/01/23 02:18:12;;;;;;;24.38;16.77;;;;;;;1.12;100.00;103436.25;4954857;29;20031;-52
2023/01/23 02:20:38;;;;;;;25.27;16.33;;;;;;;1.02;100.00;103441.81;4954684;29;20063;-52
2023/01/23 02:23:25;;;;;;;28.50;16.15;;;;;;;1.46;100.00;103501.88;4954590;29;20050;-54
2023/01/23 02:26:00;;;;;;;27.83;16.25;;;;;;;1.13;100.00;103454.47;4956033;28;20038;-52
2023/01/23 02:28:41;;;;;;;35.80;16.88;;;;;;;1.34;100.00;103477.97;4955032;29;20047;-53
2023/01/23 02:31:07;;;;;;;25.65;16.80;;;;;;;1.43;100.00;103493.94;4955641;28;20083;-53
2023/01/23 02:33:32;;;;;;;35.03;17.55;;;;;;;1.46;100.00;103496.69;4955790;28;20446;-53
2023/01/23 02:35:59;;;;;;;27.50;16.52;;;;;;;1.46;100.00;103498.41;4953895;28;20043;-53
2023/01/23 02:38:30;;;;;;;29.73;16.58;;;;;;;1.34;100.00;103480.56;4941958;28;20399;-53
2023/01/23 02:40:55;;;;;;;;;;;;;;;1.48;100.00;103499.38;4935901;29;20044;-55
2023/01/23 02:43:24;;;;;;;23.58;15.68;;;;;;;1.45;100.00;103507.91;4935026;29;20120;-50
2023/01/23 02:45:50;;;;;;;26.88;16.17;;;;;;;0.98;100.00;103411.34;4934083;29;20043;-52
2023/01/23 02:48:16;;;;;;;28.92;16.45;;;;;;;0.95;100.00;103404.31;4934366;29;20048;-55
2023/01/23 02:50:43;;;;;;;24.90;17.77;;;;;;;1.44;100.00;103490.53;4936312;29;20400;-54
2023/01/23 02:53:09;;;;;;;26.17;17.40;;;;;;;1.16;100.00;103439.88;4936195;29;20115;-53
2023/01/23 02:55:36;;;;;;;26.90;16.92;;;;;;;1.47;100.00;103498.47;4934980;29;20123;-50
2023/01/23 03:00:50;;;;;;;28.80;17.13;;;;;;;1.44;100.00;103495.72;4899743;29;20431;-54
2023/01/23 03:03:16;;;;;;;29.83;16.80;;;;;;;1.06;100.00;103433.34;4936339;29;20040;-54
2023/01/23 03:05:41;;;;;;;32.53;18.33;;;;;;;1.21;100.00;103452.25;4935016;29;20043;-56
2023/01/23 03:08:06;;;;;;;30.10;17.55;;;;;;;1.47;100.00;103503.66;4936155;29;20091;-54
2023/01/23 03:10:31;;;;;;;28.92;17.92;;;;;;;1.35;100.00;103474.53;4936201;29;20044;-53
2023/01/23 03:13:06;;;;;;;29.55;18.25;;;;;;;1.43;100.00;103514.69;4935645;29;20035;-55
2023/01/23 03:15:32;;;;;;;34.42;17.13;;;;;;;1.22;100.00;103468.69;4936220;29;20472;-53
2023/01/23 03:17:58;;;;;;;28.23;17.38;;;;;;;1.03;100.00;103431.50;4936277;29;20031;-54
2023/01/23 03:20:23;;;;;;;29.60;17.98;;;;;;;1.49;100.00;103507.19;4936044;29;20083;-55
2023/01/23 03:22:49;;;;;;;26.70;17.95;;;;;;;1.10;100.00;103436.19;4918546;29;20040;-51
2023/01/23 03:25:15;;;;;;;27.85;17.42;;;;;;;0.98;100.00;103425.22;4933791;29;20043;-55
2023/01/23 03:27:40;;;;;;;35.35;18.55;;;;;;;1.06;100.00;103433.34;4934509;29;20186;-53
2023/01/23 03:30:14;;;;;;;30.50;17.48;;;;;;;1.44;100.00;103500.91;4934582;29;20039;-53
2023/01/23 03:32:40;;;;;;;33.03;17.60;;;;;;;1.50;100.00;103514.19;4935591;29;20044;-53
2023/01/23 03:35:09;;;;;;;33.90;18.15;;;;;;;1.49;100.00;103525.38;4934474;29;20056;-51
2023/01/23 03:37:34;;;;;;;29.23;17.60;;;;;;;1.06;100.00;103442.03;4935419;29;20131;-53
2023/01/23 03:42:44;;;;;;;32.45;18.10;;;;;;;0.78;100.00;103387.09;4935475;29;20054;-52
2023/01/23 03:45:09;;;;;;;30.02;18.05;;;;;;;1.47;100.00;103521.81;4935552;29;20372;-53
2023/01/23 03:47:35;;;;;;;31.17;18.75;;;;;;;1.46;100.00;103508.78;4935442;29;20063;-53
2023/01/23 03:50:00;;;;;;;33.83;19.77;;;;;;;1.47;100.00;103513.16;4934042;29;20043;-52
2023/01/23 03:52:26;;;;;;;35.17;18.88;;;;;;;1.27;100.00;103472.41;4935124;29;20043;-53
2023/01/23 03:54:51;;;;;;;32.13;18.35;;;;;;;1.49;100.00;103511.53;4934114;29;20062;-55
2023/01/23 03:57:16;;;;;;;32.00;18.17;;;;;;;1.09;100.00;103441.28;4935350;29;20063;-52
2023/01/23 03:59:42;;;;;;;30.58;18.38;;;;;;;1.53;100.00;103519.53;4935417;29;20127;-54
2023/01/23 04:02:07;;;;;;;33.80;18.67;;;;;;;1.10;100.00;103443.06;4935596;29;20403;-59
2023/01/23 04:04:33;;;;;;;32.60;19.35;;;;;;;1.26;100.00;103474.09;4935284;29;20377;-52
2023/01/23 04:06:59;;;;;;;38.50;20.38;;;;;;;1.09;100.00;103439.59;4934743;29;20444;-56
2023/01/23 04:09:26;;;;;;;30.90;20.02;;;;;;;1.12;100.00;103442.31;4935013;29;20037;-53
2023/01/23 04:11:56;;;;;;;30.08;18.90;;;;;;;1.16;100.00;103445.94;4934837;29;20119;-53
2023/01/23 04:14:23;;;;;;;30.98;19.13;;;;;;;1.44;100.00;103493.13;4933606;29;20077;-51
2023/01/23 04:16:48;;;;;;;31.48;18.33;;;;;;;1.55;100.00;103515.28;4934867;29;20099;-53
2023/01/23 04:19:18;;;;;;;28.65;17.80;;;;;;;1.32;100.00;103474.38;4934906;29;20051;-54
2023/01/23 04:21:44;;;;;;;34.78;18.70;;;;;;;1.28;100.00;103467.28;4934860;29;20094;-53
2023/01/23 04:24:10;;;;;;;32.97;19.50;;;;;;;1.15;100.00;103438.97;4934713;29;20044;-53
2023/01/23 04:26:36;;;;;;;31.42;18.88;;;;;;;1.13;100.00;103440.63;4934888;29;20476;-53
2023/01/23 04:29:02;;;;;;;27.92;17.80;;;;;;;1.46;100.00;103490.63;4934767;29;20051;-54
2023/01/23 04:31:28;;;;;;;34.10;18.88;;;;;;;1.47;100.00;103503.66;4934712;29;20039;-54
2023/01/23 04:33:53;;;;;;;37.10;18.92;;;;;;;1.63;100.00;103526.03;4934518;29;20039;-53
2023/01/23 04:36:18;;;;;;;28.92;18.10;;;;;;;1.22;100.00;103463.50;4934593;29;20040;-54
2023/01/23 04:38:44;;;;;;;30.30;17.75;;;;;;;1.62;100.00;103532.94;4934828;29;20440;-52
2023/01/23 04:41:16;;;;;;;31.10;19.08;;;;;;;1.23;100.00;103465.28;4933665;29;20123;-55
2023/01/23 04:43:42;;;;;;;30.58;18.42;;;;;;;1.62;100.00;103558.00;4934363;29;20047;-54
2023/01/23 04:46:07;;;;;;;34.45;19.35;;;;;;;1.63;100.00;103544.22;4934698;29;20032;-55
2023/01/23 04:48:32;;;;;;;32.92;19.33;;;;;;;1.17;100.00;103462.41;4933465;29;20475;-51
2023/01/23 04:50:58;;;;;;;30.58;18.48;;;;;;;1.62;100.00;103545.91;4934590;29;20098;-56
2023/01/23 04:53:23;;;;;;;29.38;18.30;;;;;;;1.42;100.00;103509.44;4934617;29;20439;-54
2023/01/23 04:55:48;;;;;;;31.13;20.75;;;;;;;1.17;100.00;103465.00;4934778;29;20090;-55
2023/01/23 04:58:14;;;;;;;34.88;19.38;;;;;;;1.46;100.00;103524.38;4934624;29;20036;-53
2023/01/23 05:00:40;;;;;;;29.70;19.08;;;;;;;1.62;100.00;103548.50;4933363;29;20083;-53
2023/01/23 05:03:05;;;;;;;34.25;20.65;;;;;;;1.63;100.00;103550.28;4932982;29;20035;-53
2023/01/23 05:05:31;;;;;;;28.88;19.45;;;;;;;1.64;100.00;103559.84;4934193;29;20083;-53
2023/01/23 05:07:57;;;;;;;29.40;19.67;;;;;;;1.20;100.00;103466.03;4934382;29;20043;-54
2023/01/23 05:10:22;;;;;;;35.35;20.33;;;;;;;1.32;100.00;103495.13;4934265;29;20036;-51
2023/01/23 05:12:47;;;;;;;34.20;19.40;;;;;;;1.26;100.00;103489.66;4934797;29;20036;-55
2023/01/23 05:15:14;;;;;;;34.40;20.67;;;;;;;1.19;100.00;103469.44;4934020;29;20047;-53
2023/01/23 05:17:39;;;;;;;33.28;20.92;;;;;;;1.66;100.00;103542.63;4932933;29;20044;-55
2023/01/23 05:20:05;;;;;;;36.05;20.63;;;;;;;1.64;100.00;103544.28;4934243;29;20036;-54
2023/01/23 05:22:31;;;;;;;36.97;19.55;;;;;;;1.59;100.00;103537.09;4934632;29;20028;-55
2023/01/23 05:24:56;;;;;;;36.25;20.50;;;;;;;1.65;100.00;103550.34;4934221;29;20110;-55
2023/01/23 05:27:21;;;;;;;35.00;20.42;;;;;;;1.68;100.00;103555.69;4932985;29;20502;-53
2023/01/23 05:29:47;;;;;;;39.13;22.30;;;;;;;1.24;100.00;103475.75;4934042;29;20047;-55
2023/01/23 05:32:12;;;;;;;30.92;21.05;;;;;;;1.67;100.00;103548.72;4934452;29;20035;-54
2023/01/23 05:34:44;;;;;;;40.60;21.45;;;;;;;1.68;100.00;103556.59;4932629;29;20051;-54
2023/01/23 05:37:10;;;;;;;42.15;22.17;;;;;;;1.70;100.00;103554.06;4933996;29;20114;-55
2023/01/23 05:39:35;;;;;;;35.50;22.05;;;;;;;1.68;100.00;103556.59;4934136;29;20167;-53
2023/01/23 05:42:00;;;;;;;38.55;21.95;;;;;;;1.71;100.00;103548.06;4934164;29;20164;-51
2023/01/23 05:44:27;;;;;;;36.85;22.80;;;;;;;1.69;100.00;103545.38;4934237;29;20044;-53
2023/01/23 05:46:52;;;;;;;33.15;21.17;;;;;;;1.68;100.00;103546.22;4933996;29;20166;-53
2023/01/23 05:49:18;;;;;;;39.20;21.23;;;;;;;1.66;100.00;103545.22;4936253;29;20080;-54
2023/01/23 05:51:43;;;;;;;36.60;21.90;;;;;;;1.69;100.00;103549.69;4937630;29;20479;-55
2023/01/23 05:54:09;;;;;;;36.58;22.17;;;;;;;1.58;100.00;103538.78;4937337;29;20035;-52
2023/01/23 05:56:34;;;;;;;39.22;22.25;;;;;;;1.58;100.00;103536.19;4935917;29;20039;-55
2023/01/23 05:59:00;;;;;;;34.70;20.80;;;;;;;1.69;100.00;103563.53;4920091;29;20091;-54
2023/01/23 06:01:25;;;;;;;39.65;23.15;;;;;;;1.20;100.00;103458.22;4937304;29;20040;-56
2023/01/23 06:03:50;;;;;;;41.13;22.65;;;;;;;1.69;100.00;103555.75;4937479;29;20038;-52
2023/01/23 06:06:16;;;;;;;37.28;22.52;;;;;;;1.22;100.00;103471.28;4937336;29;20550;-51
2023/01/23 06:08:41;;;;;;;39.85;23.45;;;;;;;1.35;100.00;103497.88;4937269;29;20502;-52
2023/01/23 06:11:06;;;;;;;37.97;22.75;;;;;;;1.68;100.00;103561.78;4935911;29;20040;-51
2023/01/23 06:13:32;;;;;;;41.47;22.17;;;;;;;1.66;100.00;103553.00;4935432;29;20433;-53
2023/01/23 06:15:57;;;;;;;38.58;23.52;;;;;;;1.70;100.00;103575.72;4936957;29;20130;-54
2023/01/23 06:18:23;;;;;;;37.80;22.05;;;;;;;1.23;100.00;103484.31;4936942;29;20047;-53
2023/01/23 06:20:48;;;;;;;37.38;22.35;;;;;;;1.63;100.00;103565.00;4935686;29;20050;-53
2023/01/23 06:23:14;;;;;;;40.60;24.42;;;;;;;1.73;100.00;103572.38;4935072;29;20043;-55
2023/01/23 06:25:40;;;;;;;33.00;21.40;;;;;;;1.23;100.00;103484.31;4935598;29;20035;-52
2023/01/23 06:28:05;;;;;;;33.42;22.33;;;;;;;1.74;100.00;103570.66;4936744;29;20062;-55
2023/01/23 06:30:30;;;;;;;44.90;22.88;;;;;;;1.73;100.00;103564.59;4936647;29;20122;-52
2023/01/23 06:32:56;;;;;;;36.10;22.08;;;;;;;1.35;100.00;103490.09;4936620;29;20119;-55
2023/01/23 06:35:21;;;;;;;36.70;22.80;;;;;;;1.36;100.00;103484.09;4936748;29;20397;-50
2023/01/23 06:37:47;;;;;;;36.33;22.33;;;;;;;1.80;100.00;103577.06;4936638;29;20558;-53
2023/01/23 06:40:12;;;;;;;35.53;22.38;;;;;;;1.77;100.00;103586.41;4936393;29;20044;-53
2023/01/23 06:42:41;;;;;;;35.00;22.30;;;;;;;1.25;100.00;103474.03;4936645;29;20152;-52
2023/01/23 06:45:08;;;;;;;36.25;21.95;;;;;;;1.29;100.00;103482.03;4935201;29;20447;-54
2023/01/23 06:47:34;;;;;;;40.92;22.83;;;;;;;1.35;100.00;103489.19;4919163;29;20035;-52
2023/01/23 06:50:01;;;;;;;34.60;22.48;;;;;;;1.63;100.00;103542.47;4936067;29;20039;-53
2023/01/23 06:52:27;;;;;;;31.45;21.92;;;;;;;1.73;100.00;103580.16;4936220;29;20046;-54
2023/01/23 06:54:52;;;;;;;34.72;21.60;;;;;;;1.71;100.00;103579.22;4936176;29;20106;-54
2023/01/23 06:57:18;;;;;;;34.97;21.23;;;;;;;1.75;100.00;103577.66;4934800;29;20031;-56
2023/01/23 06:59:44;;;;;;;38.15;22.08;;;;;;;1.30;100.00;103501.97;4935277;29;20043;-52
2023/01/23 07:02:12;;;;;;;33.70;21.27;;;;;;;1.29;100.00;103500.19;4935783;29;20073;-52
2023/01/23 07:04:37;;;;;;;35.65;21.50;;;;;;;1.71;100.00;103584.41;4936268;29;20491;-52
2023/01/23 07:07:03;;;;;;;36.17;22.00;;;;;;;1.64;100.00;103570.22;4934725;29;20039;-53
2023/01/23 07:09:28;;;;;;;36.55;21.30;;;;;;;1.63;100.00;103572.78;4935008;29;20106;-55
2023/01/23 07:11:53;;;;;;;37.75;21.98;;;;;;;1.69;100.00;103586.03;4936031;29;20028;-54
2023/01/23 07:14:19;;;;;;;37.78;21.35;;;;;;;1.18;100.00;103495.31;4935919;29;20114;-60
2023/01/23 07:16:44;;;;;;;35.35;21.20;;;;;;;1.61;100.00;103585.66;4935887;29;20083;-52
2023/01/23 07:19:10;;;;;;;35.80;22.05;;;;;;;1.72;100.00;103591.38;4935637;29;20039;-54
2023/01/23 07:21:35;;;;;;;34.63;22.58;;;;;;;1.27;100.00;103521.69;4935977;29;20035;-53
2023/01/23 07:24:00;;;;;;;33.00;21.27;;;;;;;1.70;100.00;103591.28;4934360;29;20105;-52
2023/01/23 07:26:26;;;;;;;39.35;22.83;;;;;;;1.62;100.00;103590.06;4935813;29;20082;-52
2023/01/23 07:28:52;;;;;;;46.03;23.42;;;;;;;1.69;100.00;103601.63;4935751;29;20127;-52
2023/01/23 07:31:17;;;;;;;39.88;23.45;;;;;;;1.58;100.00;103580.31;4934518;29;20368;-55
2023/01/23 07:33:43;;;;;;;39.42;23.52;;;;;;;1.29;100.00;103530.44;4934067;29;20051;-53
2023/01/23 07:36:08;;;;;;;38.65;22.75;;;;;;;1.26;100.00;103538.06;4935697;29;20114;-50
2023/01/23 07:38:34;;;;;;;38.75;23.88;;;;;;;1.27;100.00;103526.88;4935458;29;20038;-54
2023/01/23 07:40:59;;;;;;;37.78;22.60;;;;;;;1.64;100.00;103604.00;4935444;29;20119;-50
2023/01/23 07:43:25;;;;;;;39.28;23.70;;;;;;;1.66;100.00;103604.06;4935291;29;20071;-50
2023/01/23 07:45:51;;;;;;;38.08;23.40;;;;;;;1.31;100.00;103544.38;4934017;29;20132;-53
2023/01/23 07:48:16;;;;;;;42.13;24.23;;;;;;;1.42;100.00;103562.25;4935533;29;20039;-56
2023/01/23 07:50:41;;;;;;;42.00;24.15;;;;;;;1.75;100.00;103621.78;4935231;29;20415;-50
2023/01/23 07:53:07;;;;;;;38.85;24.58;;;;;;;1.58;100.00;103601.09;4935191;29;20420;-53
2023/01/23 07:55:32;;;;;;;35.00;22.77;;;;;;;1.77;100.00;103638.34;4933955;29;20050;-54
2023/01/23 07:57:58;;;;;;;38.22;23.80;;;;;;;1.68;100.00;103629.28;4933853;29;20368;-51
2023/01/23 08:00:24;;;;;;;37.70;23.52;;;;;;;1.77;100.00;103641.81;4934900;29;20079;-51
2023/01/23 08:02:50;;;;;;;32.90;22.65;;;;;;;1.74;100.00;103638.19;4934555;29;20040;-54
2023/01/23 08:05:15;;;;;;;43.45;23.73;;;;;;;1.79;100.00;103647.06;4935190;29;20035;-51
2023/01/23 08:07:41;;;;;;;43.80;24.60;;;;;;;1.35;100.00;103561.88;4934668;29;20400;-53
2023/01/23 08:10:07;;;;;;;37.95;23.90;;;;;;;1.82;100.00;103655.00;4933404;29;20464;-52
2023/01/23 08:12:33;;;;;;;45.95;24.48;;;;;;;1.38;100.00;103562.91;4934299;29;20035;-52
2023/01/23 08:14:58;;;;;;;39.00;22.50;;;;;;;1.83;100.00;103646.41;4934463;29;20415;-53
2023/01/23 08:17:23;;;;;;;41.80;24.10;;;;;;;1.51;100.00;103582.56;4935088;29;20051;-55
2023/01/23 08:19:49;;;;;;;36.17;22.13;;;;;;;1.82;100.00;103645.53;4934377;29;20053;-54
2023/01/23 08:22:14;;;;;;;36.05;23.60;;;;;;;1.89;100.00;103663.19;4935080;29;20475;-54
2023/01/23 08:24:39;;;;;;;37.45;23.02;;;;;;;1.46;100.00;103590.13;4934344;29;20039;-49
2023/01/23 08:27:05;;;;;;;35.28;23.30;;;;;;;1.55;100.00;103607.84;4933857;29;20036;-53
2023/01/23 08:29:31;;;;;;;33.50;22.20;;;;;;;1.76;100.00;103642.63;4934604;29;20069;-52
2023/01/23 08:31:56;;;;;;;36.22;23.17;;;;;;;1.49;100.00;103594.59;4934334;29;20083;-52
2023/01/23 08:34:23;;;;;;;38.35;23.25;;;;;;;1.62;100.00;103622.91;4933533;29;20043;-50
2023/01/23 08:36:48;;;;;;;35.53;22.67;;;;;;;1.51;100.00;103603.34;4934318;29;20078;-55
2023/01/23 08:39:16;;;;;;;37.05;23.40;;;;;;;1.88;100.00;103668.28;4933363;29;20067;-53
2023/01/23 08:41:41;;;;;;;37.58;23.75;;;;;;;1.63;100.00;103622.97;4932538;29;20151;-54
2023/01/23 08:44:07;;;;;;;38.17;23.90;;;;;;;2.03;100.00;103693.31;4934094;29;20102;-54
2023/01/23 08:46:32;;;;;;;39.90;23.15;;;;;;;2.07;100.00;103683.97;4916568;29;20447;-55
2023/01/23 08:48:57;;;;;;;37.28;23.58;;;;;;;2.09;100.00;103680.63;4933669;29;20091;-51
2023/01/23 08:51:25;;;;;;;34.17;22.60;;;;;;;2.08;100.00;103696.13;4934016;29;20043;-54
2023/01/23 08:53:52;;;;;;;40.30;23.63;;;;;;;2.16;100.00;103700.00;4937966;29;20114;-54
2023/01/23 08:56:19;;;;;;;35.05;22.27;;;;;;;2.18;100.00;103686.25;4952440;29;20671;-51
2023/01/23 08:58:44;;;;;;;36.50;23.90;;;;;;;2.22;100.00;103701.16;4950909;29;20043;-56
2023/01/23 09:01:14;;;;;;;32.53;23.48;;;;;;;2.09;100.00;103671.94;4952151;28;20032;-54
2023/01/23 09:03:39;;;;;;;37.05;23.15;;;;;;;1.92;100.00;103626.06;4950869;29;20122;-55
2023/01/23 09:06:05;;;;;;;36.40;22.55;;;;;;;1.89;100.00;103615.53;4950853;29;20590;-54
2023/01/23 09:08:30;;;;;;;32.08;22.35;;;;;;;1.92;100.00;103629.56;4951236;29;20051;-56
2023/01/23 09:11:01;;;;;;;37.00;21.92;;;;;;;1.96;100.00;103627.97;4952182;29;20043;-52
2023/01/23 09:13:26;;;;;;;36.35;21.98;;;;;;;1.52;100.00;103554.06;4950482;29;20059;-56
2023/01/23 09:15:51;;;;;;;34.22;23.42;;;;;;;2.33;100.00;103686.06;4951974;29;20085;-56
2023/01/23 09:18:17;;;;;;;37.42;23.05;;;;;;;2.41;100.00;103695.09;4952605;28;20043;-56
2023/01/23 09:20:42;;;;;;;31.13;21.02;;;;;;;1.98;100.00;103622.06;4952332;28;20348;-56
2023/01/23 09:23:08;;;;;;;31.88;21.95;;;;;;;2.43;100.00;103687.38;4952933;28;20486;-54
2023/01/23 09:25:33;;;;;;;32.88;22.23;;;;;;;2.41;100.00;103689.91;4955513;28;20444;-55
2023/01/23 09:27:58;;;;;;;32.08;22.52;;;;;;;2.42;100.00;103696.00;4955810;28;20497;-56
2023/01/23 09:30:24;;;;;;;33.33;22.83;;;;;;;2.14;100.00;103628.84;4956309;28;20039;-55
2023/01/23 09:32:49;;;;;;;31.30;22.63;;;;;;;2.45;100.00;103673.59;4955218;28;20486;-57
2023/01/23 09:35:14;;;;;;;36.70;22.83;;;;;;;2.22;100.00;103624.88;4941260;28;20052;-54
2023/01/23 09:40:34;;;;;;;29.23;21.92;;;;;;;2.74;100.00;103700.97;4946741;29;20054;-54
2023/01/23 09:43:17;;;;;;;38.88;21.63;;;;;;;2.69;100.00;103679.03;4956497;29;20059;-54
2023/01/23 09:45:56;;;;;;;30.50;21.35;;;;;;;2.38;100.00;103623.88;4954962;29;20035;-54
2023/01/23 09:48:30;;;;;;;33.15;21.40;;;;;;;2.74;100.00;103685.34;4954937;29;20495;-54
2023/01/23 09:51:27;;;;;;;30.90;21.23;;;;;;;2.84;100.00;103698.81;4955582;29;20035;-54
2023/01/23 09:54:00;;;;;;;33.90;21.35;;;;;;;2.58;100.00;103651.66;4939872;29;20510;-52
2023/01/23 09:56:32;;;;;;;31.52;22.17;;;;;;;2.94;100.00;103707.94;4955589;29;20723;-52
2023/01/23 09:59:21;;;;;;;33.78;21.02;;;;;;;2.54;100.00;103615.97;4956527;29;20490;-52
2023/01/23 10:01:46;;;;;;;29.35;20.27;;;;;;;2.98;100.00;103702.03;4955975;29;20454;-53
2023/01/23 10:04:19;;;;;;;27.48;20.25;;;;;;;3.00;100.00;103700.41;4955253;29;20035;-53
2023/01/23 10:07:09;;;;;;;29.98;20.63;;;;;;;2.97;100.00;103715.88;4956397;28;20035;-52
2023/01/23 10:09:40;;;;;;;29.75;20.50;;;;;;;3.07;100.00;103702.44;4956398;28;20113;-54
2023/01/23 10:12:16;;;;;;;32.50;20.15;;;;;;;3.11;100.00;103678.34;4956405;28;20071;-57
2023/01/23 10:15:00;;;;;;;32.80;20.38;;;;;;;2.71;100.00;103617.59;4954346;29;20066;-54
2023/01/23 10:17:40;;;;;;;29.33;19.60;;;;;;;2.76;100.00;103616.06;4954762;29;20431;-52
2023/01/23 10:20:13;;;;;;;27.58;19.73;;;;;;;3.23;100.00;103699.69;4955211;29;20074;-56
2023/01/23 10:22:51;;;;;;;26.83;19.73;;;;;;;3.36;100.00;103712.38;4955219;29;20323;-55
2023/01/23 10:25:22;;;;;;;32.47;20.95;;;;;;;3.32;100.00;103681.88;4955791;28;20046;-54
2023/01/23 10:27:49;;;;;;;29.23;18.80;;;;;;;3.27;100.00;103646.91;4956056;29;20027;-52
2023/01/23 10:30:32;;;;;;;28.60;19.90;;;;;;;3.27;100.00;103620.88;4954884;29;20398;-53
2023/01/23 10:33:00;;;;;;;24.85;18.10;;;;;;;3.58;100.00;103641.28;4955054;29;20023;-54
2023/01/23 10:36:04;;;;;;;28.42;19.65;;;;;;;3.65;100.00;103643.28;4955826;28;20071;-54
2023/01/23 10:38:38;;;;;;;23.85;17.60;;;;;;;4.02;100.00;103702.97;4954366;29;20039;-53
2023/01/23 10:41:13;;;;;;;23.85;17.98;;;;;;;3.82;100.00;103660.47;4954385;29;20089;-53
2023/01/23 10:43:41;;;;;;;30.30;18.45;;;;;;;4.09;100.00;103706.69;4954504;29;20182;-54
2023/01/23 10:46:18;;;;;;;26.80;18.15;;;;;;;3.92;100.00;103675.66;4954824;29;20046;-53
2023/01/23 10:48:48;;;;;;;24.90;18.88;;;;;;;3.96;100.00;103676.69;4954457;29;20059;-56
2023/01/23 10:51:25;;;;;;;21.50;17.50;;;;;;;4.17;100.00;103714.03;4954509;29;20039;-55
2023/01/23 10:54:02;;;;;;;23.90;18.02;;;;;;;4.19;100.00;103728.00;4954957;28;20063;-53
2023/01/23 10:56:28;;;;;;;20.67;16.52;;;;;;;4.08;100.00;103697.13;4955730;29;20495;-54
2023/01/23 10:59:01;;;;;;;21.55;17.20;;;;;;;4.06;100.00;103686.63;4954480;29;20079;-53
2023/01/23 11:01:30;;;;;;;22.98;17.23;;;;;;;4.22;100.00;103707.25;4953913;29;20035;-56
2023/01/23 11:03:55;;;;;;;20.50;15.73;;;;;;;4.18;100.00;103718.38;4955072;29;20118;-55
2023/01/23 11:06:24;;;;;;;20.33;15.80;;;;;;;4.30;100.00;103721.47;4955683;28;20122;-55
2023/01/23 11:08:52;;;;;;;21.38;16.27;;;;;;;4.54;100.00;103731.97;4955705;28;20406;-50
2023/01/23 11:11:19;;;;;;;20.77;16.13;;;;;;;4.58;100.00;103744.31;4954783;28;20047;-56
2023/01/23 11:13:46;;;;;;;18.50;15.77;;;;;;;4.77;100.00;103738.03;4955320;29;20085;-54
2023/01/23 11:16:14;;;;;;;22.15;16.55;;;;;;;4.40;100.00;103655.81;4954642;29;20487;-54
2023/01/23 11:18:42;;;;;;;20.30;15.38;;;;;;;4.89;100.00;103720.25;4953925;29;20379;-55